createdAt,value
2022-07-25T00:00:25.576Z,32.50
2022-07-25T00:05:37.363Z,33.04
2022-07-25T00:10:39.859Z,32.80
2022-07-25T00:15:41.696Z,33.08
2022-07-25T00:20:43.336Z,33.17
2022-07-25T00:25:45.674Z,33.22
2022-07-25T00:30:47.986Z,33.41
2022-07-25T00:35:50.607Z,33.81
2022-07-25T00:40:55.321Z,33.77
2022-07-25T00:46:06.461Z,33.76
2022-07-25T00:51:12.501Z,33.91
2022-07-25T00:56:15.693Z,34.36
2022-07-25T01:01:18.175Z,34.28
2022-07-25T01:06:20.997Z,34.23
2022-07-25T01:11:27.987Z,34.66
2022-07-25T01:16:30.699Z,34.77
2022-07-25T01:21:33.010Z,35.04
2022-07-25T01:26:35.264Z,34.95
2022-07-25T01:31:37.914Z,35.13
2022-07-25T01:36:42.518Z,35.26
2022-07-25T01:41:44.349Z,35.58
2022-07-25T01:46:46.774Z,35.38
2022-07-25T01:51:48.651Z,35.97
2022-07-25T01:56:51.290Z,35.77
2022-07-25T02:01:54.077Z,35.95
2022-07-25T02:06:57.130Z,35.97
2022-07-25T02:12:00.149Z,35.94
2022-07-25T02:17:02.267Z,36.46
2022-07-25T02:22:04.857Z,36.42
2022-07-25T02:27:10.292Z,36.76
2022-07-25T02:32:12.336Z,36.99
2022-07-25T02:37:17.932Z,36.69
2022-07-25T02:42:20.441Z,37.07
2022-07-25T02:47:22.440Z,37.17
2022-07-25T02:52:24.931Z,37.13
2022-07-25T02:57:26.771Z,37.52
2022-07-25T03:02:28.559Z,37.20
2022-07-25T03:07:30.270Z,37.58
2022-07-25T03:12:36.322Z,37.74
2022-07-25T03:17:39.318Z,37.75
2022-07-25T03:22:49.409Z,38.01
2022-07-25T03:27:52.222Z,37.98
2022-07-25T03:32:55.292Z,37.98
2022-07-25T03:37:57.669Z,37.77
2022-07-25T03:42:59.528Z,37.68
2022-07-25T03:48:01.391Z,38.03
2022-07-25T03:53:04.489Z,37.84
2022-07-25T03:58:07.180Z,38.35
2022-07-25T04:03:08.944Z,38.07
2022-07-25T04:08:11.754Z,37.95
2022-07-25T04:13:20.083Z,38.51
2022-07-25T04:18:27.436Z,38.29
2022-07-25T04:23:31.506Z,38.76
2022-07-25T04:28:33.853Z,38.62
2022-07-25T04:33:43.081Z,38.93
2022-07-25T04:38:47.450Z,38.95
2022-07-25T04:43:51.389Z,38.89
2022-07-25T04:48:54.010Z,38.71
2022-07-25T04:53:55.681Z,39.04
2022-07-25T04:59:00.599Z,39.09
2022-07-25T05:04:14.767Z,38.93
2022-07-25T05:09:19.807Z,38.75
2022-07-25T05:14:21.804Z,38.77
2022-07-25T05:19:23.474Z,38.72
2022-07-25T05:24:25.156Z,38.90
2022-07-25T05:29:28.398Z,38.70
2022-07-25T05:34:30.789Z,38.32
2022-07-25T05:39:33.035Z,38.44
2022-07-25T05:44:41.825Z,38.65
2022-07-25T05:49:43.814Z,38.22
2022-07-25T05:54:45.811Z,38.21
2022-07-25T05:59:47.898Z,38.18
2022-07-25T06:04:52.894Z,37.98
2022-07-25T06:09:54.820Z,38.09
2022-07-25T06:14:56.521Z,37.93
2022-07-25T06:19:58.704Z,37.67
2022-07-25T06:25:05.002Z,37.52
2022-07-25T06:30:18.649Z,37.00
2022-07-25T06:35:25.166Z,37.20
2022-07-25T06:40:27.105Z,36.91
2022-07-25T06:45:28.892Z,36.92
2022-07-25T06:50:31.340Z,36.57
2022-07-25T06:55:33.103Z,36.24
2022-07-25T07:00:34.972Z,36.31
2022-07-25T07:05:37.361Z,35.94
2022-07-25T07:10:40.273Z,36.38
2022-07-25T07:15:47.710Z,35.95
2022-07-25T07:20:49.384Z,35.98
2022-07-25T07:25:51.024Z,35.54
2022-07-25T07:31:15.146Z,35.65
2022-07-25T07:36:14.259Z,35.59
2022-07-25T07:41:15.917Z,35.35
2022-07-25T07:46:17.601Z,35.42
2022-07-25T07:51:19.272Z,35.37
2022-07-25T07:56:21.176Z,35.11
2022-07-25T08:01:22.838Z,35.39
2022-07-25T08:06:24.574Z,35.17
2022-07-25T08:11:26.560Z,35.21
2022-07-25T08:16:28.253Z,35.05
2022-07-25T08:21:30.042Z,34.90
2022-07-25T08:26:33.839Z,34.79
2022-07-25T08:31:35.467Z,34.75
2022-07-25T08:36:37.117Z,34.61
2022-07-25T08:41:41.189Z,34.62
2022-07-25T08:46:45.190Z,34.62
2022-07-25T08:51:47.663Z,34.57
2022-07-25T08:56:53.472Z,34.18
2022-07-25T09:01:55.151Z,34.33
2022-07-25T09:06:56.837Z,34.22
2022-07-25T09:11:58.687Z,33.90
2022-07-25T09:17:22.558Z,33.84
2022-07-25T09:22:25.624Z,33.81
2022-07-25T09:27:36.495Z,33.60
2022-07-25T09:32:39.469Z,33.20
2022-07-25T09:37:44.137Z,33.24
2022-07-25T09:42:50.675Z,33.19
2022-07-25T09:47:56.901Z,32.91
2022-07-25T09:53:02.525Z,32.44
2022-07-25T09:58:04.316Z,32.61
2022-07-25T10:03:16.921Z,32.38
2022-07-25T10:08:20.923Z,31.73
2022-07-25T10:13:31.506Z,31.16
2022-07-25T10:18:34.457Z,31.12
2022-07-25T10:23:36.201Z,30.99
2022-07-25T10:29:05.272Z,31.01
2022-07-25T10:34:11.069Z,31.02
2022-07-25T10:39:15.634Z,30.93
2022-07-25T10:44:17.366Z,30.76
2022-07-25T10:49:32.070Z,30.48
2022-07-25T10:54:38.912Z,30.87
2022-07-25T10:59:41.409Z,30.42
2022-07-25T11:04:44.853Z,30.50
2022-07-25T11:09:57.160Z,30.39
2022-07-25T11:15:07.273Z,29.85
2022-07-25T11:20:10.583Z,29.17
2022-07-25T11:25:14.525Z,28.90
2022-07-25T11:30:28.982Z,29.37
2022-07-25T11:35:32.822Z,29.25
2022-07-25T11:40:42.865Z,29.05
2022-07-25T11:45:44.493Z,28.04
2022-07-25T11:50:46.401Z,27.27
2022-07-25T11:55:48.198Z,26.71
2022-07-25T12:00:50.727Z,26.71
2022-07-25T12:05:58.496Z,27.08
2022-07-25T12:11:01.477Z,26.87
2022-07-25T12:16:04.183Z,26.33
2022-07-25T12:21:07.587Z,27.15
2022-07-25T12:26:13.776Z,26.60
2022-07-25T12:31:18.509Z,26.55
2022-07-25T12:36:23.140Z,25.52
2022-07-25T12:41:25.378Z,25.02
2022-07-25T12:46:30.014Z,24.91
2022-07-25T12:51:31.656Z,24.18
2022-07-25T12:56:33.414Z,24.44
2022-07-25T13:01:36.519Z,24.62
2022-07-25T13:06:46.733Z,23.89
2022-07-25T13:11:48.971Z,23.55
2022-07-25T13:16:50.780Z,23.42
2022-07-25T13:21:53.431Z,23.89
2022-07-25T13:26:55.209Z,23.88
2022-07-25T13:31:56.956Z,23.30
2022-07-25T13:36:58.699Z,23.75
2022-07-25T13:42:00.370Z,22.76
2022-07-25T13:47:02.185Z,23.21
2022-07-25T13:52:04.418Z,23.46
2022-07-25T13:57:06.082Z,23.29
2022-07-25T14:02:07.797Z,23.43
2022-07-25T14:07:09.584Z,22.00
2022-07-25T14:12:11.216Z,22.64
2022-07-25T14:17:12.907Z,22.20
2022-07-25T14:22:14.609Z,22.13
2022-07-25T14:27:16.234Z,21.66
2022-07-25T14:32:17.947Z,21.63
2022-07-25T14:37:20.953Z,22.07
2022-07-25T14:42:22.637Z,21.48
2022-07-25T14:47:27.222Z,20.37
2022-07-25T14:52:29.280Z,20.60
2022-07-25T14:57:30.902Z,19.89
2022-07-25T15:02:32.580Z,20.45
2022-07-25T15:07:34.445Z,20.38
2022-07-25T15:12:38.900Z,20.20
2022-07-25T15:17:40.660Z,18.86
2022-07-25T15:22:42.406Z,18.65
2022-07-25T15:27:44.295Z,17.71
2022-07-25T15:32:46.046Z,17.68
2022-07-25T15:37:47.910Z,16.64
2022-07-25T15:42:49.691Z,17.22
2022-07-25T15:47:51.865Z,16.78
2022-07-25T15:52:53.513Z,16.82
2022-07-25T15:57:55.160Z,17.01
2022-07-25T16:02:57.152Z,16.07
2022-07-25T16:08:02.229Z,16.38
2022-07-25T16:13:04.587Z,16.82
2022-07-25T16:18:06.616Z,17.07
2022-07-25T16:23:08.908Z,16.95
2022-07-25T16:28:11.416Z,16.89
2022-07-25T16:33:14.233Z,17.33
2022-07-25T16:38:17.117Z,16.94
2022-07-25T16:43:18.705Z,17.81
2022-07-25T16:48:20.633Z,17.25
2022-07-25T16:53:32.773Z,17.75
2022-07-25T16:58:35.067Z,17.81
2022-07-25T17:03:36.725Z,17.81
2022-07-25T17:08:38.589Z,18.30
2022-07-25T17:13:41.556Z,18.48
2022-07-25T17:18:43.148Z,18.76
2022-07-25T17:23:45.002Z,18.24
2022-07-25T17:28:47.951Z,21.43
2022-07-25T17:33:50.877Z,24.24
2022-07-25T17:38:53.002Z,26.11
2022-07-25T17:43:54.750Z,27.50
2022-07-25T17:49:00.578Z,27.85
2022-07-25T17:54:09.085Z,29.41
2022-07-25T17:59:11.228Z,30.13
2022-07-25T18:04:14.396Z,31.36
2022-07-25T18:09:16.099Z,32.04
2022-07-25T18:14:17.747Z,32.77
2022-07-25T18:19:19.549Z,32.45
2022-07-25T18:24:24.757Z,33.03
2022-07-25T18:29:29.265Z,33.73
2022-07-25T18:34:33.998Z,34.10
2022-07-25T18:39:35.650Z,33.87
2022-07-25T18:44:37.509Z,33.65
2022-07-25T18:49:39.612Z,34.00
2022-07-25T18:54:41.303Z,33.43
2022-07-25T18:59:43.315Z,34.30
2022-07-25T19:04:45.147Z,34.48
2022-07-25T19:09:46.895Z,34.85
2022-07-25T19:14:49.303Z,35.62
2022-07-25T19:19:52.701Z,35.71
2022-07-25T19:24:54.366Z,35.91
2022-07-25T19:29:55.990Z,36.46
2022-07-25T19:34:57.657Z,36.27
2022-07-25T19:40:00.956Z,36.74
2022-07-25T19:45:03.452Z,36.85
2022-07-25T19:50:05.539Z,36.79
2022-07-25T19:55:07.597Z,37.04
2022-07-25T20:00:10.217Z,36.90
2022-07-25T20:05:14.600Z,36.81
2022-07-25T20:10:17.873Z,36.93
2022-07-25T20:15:19.826Z,36.95
2022-07-25T20:20:21.486Z,37.33
2022-07-25T20:25:23.301Z,37.87
2022-07-25T20:30:25.146Z,38.07
2022-07-25T20:35:30.991Z,38.33
2022-07-25T20:40:36.194Z,38.46
2022-07-25T20:45:39.584Z,38.97
2022-07-25T20:50:42.095Z,37.87
2022-07-25T20:55:43.934Z,37.31
2022-07-25T21:00:46.542Z,37.64
2022-07-25T21:05:48.361Z,38.61
2022-07-25T21:10:50.106Z,39.47
2022-07-25T21:15:51.890Z,38.50
2022-07-25T21:20:53.887Z,38.62
2022-07-25T21:25:55.664Z,38.39
2022-07-25T21:30:57.327Z,38.50
2022-07-25T21:35:59.239Z,38.71
2022-07-25T21:41:00.993Z,38.79
2022-07-25T21:46:02.731Z,38.63
2022-07-25T21:51:07.710Z,39.66
2022-07-25T21:56:09.563Z,39.27
2022-07-25T22:01:11.189Z,39.04
2022-07-25T22:06:12.960Z,39.38
2022-07-25T22:11:35.796Z,39.08
2022-07-25T22:16:36.720Z,39.12
2022-07-25T22:21:40.597Z,39.32
2022-07-25T22:26:42.542Z,39.32
2022-07-25T22:31:44.574Z,39.35
2022-07-25T22:36:46.498Z,39.53
2022-07-25T22:41:48.588Z,39.24
2022-07-25T22:46:50.391Z,39.27
2022-07-25T22:51:52.367Z,38.92
2022-07-25T22:56:54.101Z,39.05
2022-07-25T23:01:55.996Z,38.78
2022-07-25T23:06:57.678Z,39.08
2022-07-25T23:11:59.270Z,38.78
2022-07-25T23:17:20.066Z,38.97
2022-07-25T23:22:25.523Z,38.54
2022-07-25T23:27:27.370Z,38.49
2022-07-25T23:32:28.988Z,38.49
2022-07-25T23:37:30.845Z,38.26
2022-07-25T23:42:32.854Z,38.18
2022-07-25T23:47:39.298Z,38.39
2022-07-25T23:52:42.493Z,38.23
2022-07-25T23:57:44.239Z,38.26
